Time;durP1;ratioP1;P1;durP2;ratioP2;P2;SDS_P1;SDS_P2;PMS_P1;PMS_P2;Temp;Humidity;BMP_temperature;BMP_pressure;BME280_temperature;BME280_humidity;BME280_pressure;Samples;Min_cycle;Max_cycle;Signal;HPM_P1;HPM_P2
2023/05/16 00:01:07;;;;;;;0.20;0.20;;;9.80;99.90;;;;;;5035363;28;20433;-71
2023/05/16 00:03:33;;;;;;;0.30;0.30;;;9.70;99.90;;;;;;5018242;28;20034;-71
2023/05/16 00:06:01;;;;;;;0.20;0.20;;;9.70;99.90;;;;;;5015256;28;20022;-71
2023/05/16 00:08:27;;;;;;;0.20;0.20;;;9.70;99.90;;;;;;5018154;28;20053;-71
2023/05/16 00:10:53;;;;;;;0.10;0.10;;;9.70;99.90;;;;;;5015553;28;20029;-71
2023/05/16 00:13:23;;;;;;;0.20;0.20;;;9.70;99.90;;;;;;5020754;28;20368;-71
2023/05/16 00:15:50;;;;;;;0.28;0.28;;;9.70;99.90;;;;;;5017695;28;20026;-71
2023/05/16 00:18:16;;;;;;;0.20;0.20;;;9.70;99.90;;;;;;5014782;28;20499;-71
2023/05/16 00:20:42;;;;;;;0.20;0.20;;;9.70;99.90;;;;;;5015337;28;20065;-71
2023/05/16 00:23:08;;;;;;;0.10;0.10;;;9.70;99.90;;;;;;5034588;28;20044;-71
2023/05/16 00:25:33;;;;;;;0.10;0.10;;;9.70;99.90;;;;;;5034905;28;20024;-71
2023/05/16 00:27:59;;;;;;;0.20;0.20;;;9.60;99.90;;;;;;5035071;28;20029;-71
2023/05/16 00:30:24;;;;;;;0.17;0.17;;;9.60;99.90;;;;;;5034793;28;20021;-71
2023/05/16 00:32:50;;;;;;;0.20;0.20;;;9.70;99.90;;;;;;5034832;28;20029;-71
2023/05/16 00:35:15;;;;;;;0.20;0.20;;;9.70;99.90;;;;;;5035139;28;20034;-72
2023/05/16 00:37:41;;;;;;;0.20;0.20;;;9.70;99.90;;;;;;5034620;28;20037;-71
2023/05/16 00:40:07;;;;;;;0.10;0.10;;;9.70;99.90;;;;;;5034893;28;20112;-71
2023/05/16 00:42:32;;;;;;;0.30;0.30;;;9.70;99.90;;;;;;5034925;28;20033;-71
2023/05/16 00:44:59;;;;;;;0.20;0.20;;;9.70;99.90;;;;;;5033577;28;20032;-71
2023/05/16 00:47:25;;;;;;;0.20;0.20;;;9.70;99.90;;;;;;5034736;28;20072;-71
2023/05/16 00:49:50;;;;;;;0.20;0.20;;;9.70;99.90;;;;;;5034691;28;20438;-71
2023/05/16 00:52:16;;;;;;;0.20;0.20;;;9.70;99.90;;;;;;5034749;28;20017;-71
2023/05/16 00:54:42;;;;;;;0.20;0.20;;;9.70;99.90;;;;;;5034642;28;20061;-71
2023/05/16 00:57:07;;;;;;;0.20;0.20;;;9.70;99.90;;;;;;5034621;28;20032;-71
2023/05/16 00:59:33;;;;;;;0.10;0.10;;;9.80;99.90;;;;;;5033217;28;20030;-71
2023/05/16 01:01:59;;;;;;;0.20;0.20;;;9.80;99.90;;;;;;5034801;28;20116;-71
2023/05/16 01:04:26;;;;;;;0.20;0.20;;;9.80;99.90;;;;;;5034446;28;20032;-71
2023/05/16 01:06:52;;;;;;;0.20;0.20;;;9.80;99.90;;;;;;5034435;28;20498;-71
2023/05/16 01:09:18;;;;;;;0.20;0.20;;;9.70;99.90;;;;;;5034467;28;20029;-71
2023/05/16 01:12:01;;;;;;;0.20;0.20;;;9.70;99.90;;;;;;5034360;28;20025;-71
2023/05/16 01:14:32;;;;;;;0.20;0.20;;;9.70;99.90;;;;;;5034389;28;20026;-71
2023/05/16 01:17:17;;;;;;;0.10;0.10;;;9.70;99.90;;;;;;5034331;28;20029;-71
2023/05/16 01:19:55;;;;;;;0.30;0.30;;;9.60;99.90;;;;;;5034143;28;20029;-71
2023/05/16 01:22:26;;;;;;;0.20;0.20;;;9.60;99.90;;;;;;5034289;28;20475;-72
2023/05/16 01:25:03;;;;;;;0.10;0.10;;;9.60;99.90;;;;;;5032789;28;20037;-71
2023/05/16 01:27:30;;;;;;;0.20;0.20;;;9.60;99.90;;;;;;5034544;28;20390;-72
2023/05/16 01:29:56;;;;;;;0.20;0.20;;;9.60;99.90;;;;;;5034153;28;20021;-71
2023/05/16 01:32:22;;;;;;;0.20;0.20;;;9.60;99.90;;;;;;5033966;28;20028;-71
2023/05/16 01:34:50;;;;;;;0.20;0.20;;;9.50;99.90;;;;;;5034094;28;20032;-72
2023/05/16 01:37:26;;;;;;;0.20;0.20;;;9.50;99.90;;;;;;5032611;28;20100;-71
2023/05/16 01:40:04;;;;;;;0.20;0.20;;;9.40;99.90;;;;;;5033833;28;20048;-72
2023/05/16 01:42:33;;;;;;;0.20;0.20;;;9.40;99.90;;;;;;5034108;28;20026;-72
2023/05/16 01:45:17;;;;;;;0.20;0.20;;;9.30;99.90;;;;;;5033725;28;20069;-72
2023/05/16 01:47:46;;;;;;;0.20;0.20;;;9.30;99.90;;;;;;5033051;28;20443;-72
2023/05/16 01:50:16;;;;;;;0.28;0.28;;;9.30;99.90;;;;;;5033565;28;20025;-72
2023/05/16 01:52:55;;;;;;;0.20;0.20;;;9.10;99.90;;;;;;5033611;28;20025;-72
2023/05/16 01:55:31;;;;;;;0.20;0.20;;;9.10;99.90;;;;;;5033612;28;20111;-72
2023/05/16 01:57:58;;;;;;;0.10;0.10;;;9.10;99.90;;;;;;5033397;28;20041;-72
2023/05/16 02:00:24;;;;;;;0.10;0.10;;;9.00;99.90;;;;;;5033683;28;20415;-72
2023/05/16 02:02:49;;;;;;;0.30;0.30;;;8.90;99.90;;;;;;5027432;28;20032;-71
2023/05/16 02:05:15;;;;;;;0.20;0.20;;;8.90;99.90;;;;;;5017637;28;20032;-72
2023/05/16 02:07:41;;;;;;;0.30;0.30;;;8.80;99.90;;;;;;5027710;28;20062;-71
2023/05/16 02:10:07;;;;;;;0.30;0.30;;;8.80;99.90;;;;;;5025964;28;20052;-72
2023/05/16 02:12:33;;;;;;;0.28;0.28;;;8.90;99.90;;;;;;5032912;28;20069;-71
2023/05/16 02:14:58;;;;;;;0.10;0.10;;;8.80;99.90;;;;;;5033314;28;20021;-72
2023/05/16 02:17:24;;;;;;;0.20;0.20;;;8.90;99.90;;;;;;5032855;28;20033;-72
2023/05/16 02:19:49;;;;;;;0.25;0.25;;;8.90;99.90;;;;;;5084996;23;20494;-75
2023/05/16 02:22:15;;;;;;;0.20;0.20;;;8.90;99.90;;;;;;5033171;28;20061;-75
2023/05/16 02:24:40;;;;;;;0.20;0.20;;;8.90;99.90;;;;;;5033400;28;20116;-75
2023/05/16 02:27:06;;;;;;;0.20;0.20;;;8.90;99.90;;;;;;5032898;28;20080;-75
2023/05/16 02:29:31;;;;;;;0.10;0.10;;;9.00;99.90;;;;;;5033057;28;20021;-75
2023/05/16 02:31:57;;;;;;;0.22;0.22;;;8.90;99.90;;;;;;5033029;28;20057;-75
2023/05/16 02:34:22;;;;;;;0.20;0.20;;;8.90;99.90;;;;;;5032988;28;20025;-75
2023/05/16 02:36:48;;;;;;;0.15;0.15;;;8.90;99.90;;;;;;5033068;28;20051;-75
2023/05/16 02:39:14;;;;;;;0.20;0.20;;;9.00;99.90;;;;;;5032952;28;20108;-75
2023/05/16 02:41:39;;;;;;;0.20;0.20;;;8.90;99.90;;;;;;5031588;28;20541;-75
2023/05/16 02:44:05;;;;;;;0.20;0.20;;;8.90;99.90;;;;;;5033581;28;20036;-75
2023/05/16 02:46:33;;;;;;;0.17;0.17;;;8.90;99.90;;;;;;5032919;28;20029;-75
2023/05/16 02:48:59;;;;;;;0.20;0.20;;;9.00;99.90;;;;;;5033231;28;20030;-75
2023/05/16 02:51:26;;;;;;;0.20;0.20;;;8.90;99.90;;;;;;5031592;28;20021;-75
2023/05/16 02:53:53;;;;;;;0.20;0.20;;;9.00;99.90;;;;;;5032798;28;20022;-75
2023/05/16 02:56:20;;;;;;;0.20;0.20;;;9.00;99.90;;;;;;5033196;28;20442;-76
2023/05/16 02:58:48;;;;;;;0.20;0.20;;;9.00;99.90;;;;;;5033805;28;20021;-75
2023/05/16 03:01:14;;;;;;;0.20;0.20;;;9.00;99.90;;;;;;5036758;28;20033;-75
2023/05/16 03:03:40;;;;;;;0.20;0.20;;;9.00;99.90;;;;;;5036814;28;20017;-76
2023/05/16 03:06:05;;;;;;;0.20;0.20;;;9.00;99.90;;;;;;5035523;28;20546;-76
2023/05/16 03:08:31;;;;;;;0.20;0.20;;;9.00;99.90;;;;;;5036740;28;20029;-75
2023/05/16 03:10:57;;;;;;;0.30;0.30;;;8.90;99.90;;;;;;5036647;28;20040;-76
2023/05/16 03:13:23;;;;;;;0.20;0.20;;;9.00;99.90;;;;;;5036599;28;20025;-76
2023/05/16 03:15:48;;;;;;;0.20;0.20;;;9.00;99.90;;;;;;5037054;28;20053;-75
2023/05/16 03:18:14;;;;;;;0.17;0.17;;;9.00;99.90;;;;;;5035187;28;20025;-75
2023/05/16 03:20:40;;;;;;;0.20;0.20;;;9.00;99.90;;;;;;5036330;28;20510;-76
2023/05/16 03:23:08;;;;;;;0.30;0.30;;;9.00;99.90;;;;;;5035157;28;20167;-75
2023/05/16 03:25:35;;;;;;;0.20;0.20;;;9.00;99.90;;;;;;5036418;28;20044;-76
2023/05/16 03:28:01;;;;;;;0.20;0.20;;;8.90;99.90;;;;;;5036257;28;20122;-75
2023/05/16 03:30:26;;;;;;;0.17;0.17;;;8.90;99.90;;;;;;5034900;28;20478;-76
2023/05/16 03:32:52;;;;;;;0.28;0.28;;;8.90;99.90;;;;;;5036560;28;20075;-76
2023/05/16 03:35:17;;;;;;;0.30;0.30;;;8.90;99.90;;;;;;5036103;28;20064;-76
2023/05/16 03:37:43;;;;;;;0.17;0.17;;;8.90;99.90;;;;;;5036023;28;20025;-76
2023/05/16 03:40:10;;;;;;;0.20;0.20;;;8.90;99.90;;;;;;5031559;28;20049;-73
2023/05/16 03:42:35;;;;;;;0.25;0.25;;;8.80;99.90;;;;;;5024414;28;20022;-75
2023/05/16 03:45:01;;;;;;;0.20;0.20;;;8.80;99.90;;;;;;5029598;28;20052;-74
2023/05/16 03:47:30;;;;;;;0.20;0.20;;;8.70;99.90;;;;;;5034569;28;20021;-75
2023/05/16 03:49:55;;;;;;;0.20;0.20;;;8.60;99.90;;;;;;5035718;28;20064;-75
2023/05/16 03:52:21;;;;;;;0.20;0.20;;;8.60;99.90;;;;;;5033473;28;20033;-75
2023/05/16 03:54:46;;;;;;;0.20;0.20;;;8.50;99.90;;;;;;5025240;28;20049;-75
2023/05/16 03:57:12;;;;;;;0.20;0.20;;;8.40;99.90;;;;;;5015707;28;20395;-75
2023/05/16 03:59:38;;;;;;;0.20;0.20;;;8.30;99.90;;;;;;5015925;28;20018;-75
2023/05/16 04:02:05;;;;;;;0.20;0.20;;;8.30;99.90;;;;;;5016259;28;20022;-75
2023/05/16 04:04:31;;;;;;;0.20;0.20;;;8.20;99.90;;;;;;5018123;28;20510;-75
2023/05/16 04:06:56;;;;;;;0.20;0.20;;;8.10;99.90;;;;;;5015622;28;20026;-74
2023/05/16 04:09:22;;;;;;;0.20;0.20;;;8.10;99.90;;;;;;5033539;28;20048;-76
2023/05/16 04:11:47;;;;;;;0.20;0.20;;;8.10;99.90;;;;;;5034586;28;20498;-75
2023/05/16 04:14:14;;;;;;;0.30;0.30;;;8.00;99.90;;;;;;5019695;28;20037;-75
2023/05/16 04:16:40;;;;;;;0.20;0.20;;;8.10;99.90;;;;;;5015350;28;20562;-75
2023/05/16 04:19:06;;;;;;;0.20;0.20;;;8.00;99.90;;;;;;5015432;28;20097;-75
2023/05/16 04:21:31;;;;;;;0.20;0.20;;;7.90;99.90;;;;;;5015954;28;20034;-75
2023/05/16 04:23:57;;;;;;;0.20;0.20;;;8.00;99.90;;;;;;5015135;28;20026;-75
2023/05/16 04:26:23;;;;;;;0.10;0.10;;;8.00;99.90;;;;;;5016622;28;20034;-75
2023/05/16 04:28:49;;;;;;;0.13;0.13;;;8.00;99.90;;;;;;5035331;28;20430;-76
2023/05/16 04:31:15;;;;;;;0.20;0.20;;;8.00;99.90;;;;;;5034716;28;20030;-76
2023/05/16 04:33:41;;;;;;;0.30;0.30;;;8.10;99.90;;;;;;5030227;28;20395;-76
2023/05/16 04:36:07;;;;;;;0.20;0.20;;;8.20;99.90;;;;;;5034572;28;20026;-75
2023/05/16 04:38:32;;;;;;;0.20;0.20;;;8.40;99.90;;;;;;5026920;28;20448;-76
2023/05/16 04:40:58;;;;;;;0.20;0.20;;;8.50;99.90;;;;;;5014995;28;20018;-76
2023/05/16 04:43:23;;;;;;;0.20;0.20;;;8.50;99.90;;;;;;5013336;28;20050;-76
2023/05/16 04:45:49;;;;;;;0.20;0.20;;;8.50;99.90;;;;;;5015104;28;20029;-75
2023/05/16 04:48:15;;;;;;;0.30;0.30;;;8.60;99.90;;;;;;5014743;28;20445;-75
2023/05/16 04:50:41;;;;;;;0.20;0.20;;;8.80;99.90;;;;;;5014969;28;20027;-75
2023/05/16 04:53:06;;;;;;;0.20;0.20;;;8.90;99.90;;;;;;5014530;28;20491;-75
2023/05/16 04:55:32;;;;;;;0.20;0.20;;;9.10;99.90;;;;;;5024710;28;20017;-76
2023/05/16 04:57:57;;;;;;;0.20;0.20;;;9.10;99.90;;;;;;5034291;28;20068;-75
2023/05/16 05:00:23;;;;;;;0.20;0.20;;;9.20;99.90;;;;;;5027356;28;20105;-75
2023/05/16 05:02:49;;;;;;;0.20;0.20;;;9.30;99.90;;;;;;5032285;28;20018;-76
2023/05/16 05:05:14;;;;;;;0.28;0.28;;;9.20;99.90;;;;;;5034084;28;20032;-75
2023/05/16 05:07:40;;;;;;;0.20;0.20;;;9.10;99.90;;;;;;5029934;28;20036;-75
2023/05/16 05:10:06;;;;;;;0.20;0.20;;;9.00;99.90;;;;;;5020608;28;20037;-75
2023/05/16 05:12:32;;;;;;;0.20;0.20;;;8.90;99.90;;;;;;5025023;28;20051;-75
2023/05/16 05:14:58;;;;;;;0.20;0.20;;;8.90;99.90;;;;;;5014464;28;20108;-75
2023/05/16 05:17:23;;;;;;;0.20;0.20;;;8.90;99.90;;;;;;5032415;28;20032;-76
2023/05/16 05:19:49;;;;;;;0.20;0.20;;;9.30;99.90;;;;;;5034050;28;20438;-75
2023/05/16 05:22:15;;;;;;;0.10;0.10;;;9.40;99.90;;;;;;5033816;28;20105;-75
2023/05/16 05:24:40;;;;;;;0.20;0.20;;;9.30;99.90;;;;;;5033807;28;20059;-75
2023/05/16 05:27:06;;;;;;;0.20;0.20;;;9.20;99.90;;;;;;5031758;28;20446;-75
2023/05/16 05:29:31;;;;;;;0.20;0.20;;;9.20;99.90;;;;;;5033805;28;20033;-75
2023/05/16 05:31:57;;;;;;;0.20;0.20;;;9.20;99.90;;;;;;5031031;28;20026;-75
2023/05/16 05:34:22;;;;;;;0.20;0.20;;;9.40;99.90;;;;;;5033999;28;20032;-75
2023/05/16 05:36:48;;;;;;;0.10;0.10;;;9.60;99.90;;;;;;5032922;28;20079;-76
2023/05/16 05:39:13;;;;;;;0.20;0.20;;;9.60;99.90;;;;;;5031043;28;20025;-75
2023/05/16 05:41:39;;;;;;;0.15;0.15;;;9.70;99.90;;;;;;5033229;28;20069;-76
2023/05/16 05:44:05;;;;;;;0.20;0.20;;;9.70;99.90;;;;;;5031174;28;20053;-75
2023/05/16 05:46:32;;;;;;;0.10;0.10;;;9.60;99.90;;;;;;5033710;28;20461;-75
2023/05/16 05:48:58;;;;;;;0.20;0.20;;;9.60;99.90;;;;;;5033371;28;20030;-75
2023/05/16 05:51:24;;;;;;;0.20;0.20;;;9.70;99.90;;;;;;5016352;28;20092;-75
2023/05/16 05:53:50;;;;;;;0.20;0.20;;;9.80;99.90;;;;;;5013503;28;20037;-75
2023/05/16 05:56:16;;;;;;;0.15;0.15;;;9.90;99.90;;;;;;5013800;28;20034;-75
2023/05/16 05:58:42;;;;;;;0.20;0.20;;;9.90;99.90;;;;;;5012520;28;20071;-75
2023/05/16 06:01:09;;;;;;;0.20;0.20;;;9.90;99.90;;;;;;5013494;28;20018;-75
2023/05/16 06:03:35;;;;;;;0.20;0.20;;;9.90;99.90;;;;;;5013577;28;20026;-75
2023/05/16 06:06:01;;;;;;;0.20;0.20;;;9.80;99.90;;;;;;5013432;28;20041;-75
2023/05/16 06:08:26;;;;;;;0.30;0.30;;;10.00;99.90;;;;;;5018701;28;20019;-75
2023/05/16 06:10:52;;;;;;;0.20;0.20;;;10.30;99.90;;;;;;5033286;28;20521;-75
2023/05/16 06:13:17;;;;;;;0.20;0.20;;;10.30;99.90;;;;;;5033397;28;20043;-75
2023/05/16 06:15:43;;;;;;;0.20;0.20;;;10.10;99.90;;;;;;5033154;28;20040;-75
2023/05/16 06:18:08;;;;;;;0.20;0.20;;;10.00;99.90;;;;;;5032685;28;20040;-75
2023/05/16 06:20:34;;;;;;;0.17;0.17;;;9.80;99.90;;;;;;5017582;28;20038;-75
2023/05/16 06:23:00;;;;;;;0.25;0.25;;;9.90;99.90;;;;;;5014009;28;20022;-75
2023/05/16 06:25:26;;;;;;;0.20;0.20;;;9.90;99.90;;;;;;5013248;28;20025;-76
2023/05/16 06:27:51;;;;;;;0.20;0.20;;;9.90;99.90;;;;;;5026615;28;20030;-76
2023/05/16 06:30:17;;;;;;;0.20;0.20;;;9.90;99.90;;;;;;5032622;28;20048;-75
2023/05/16 06:32:42;;;;;;;0.20;0.20;;;9.90;99.90;;;;;;5032949;28;20029;-76
2023/05/16 06:35:08;;;;;;;0.20;0.20;;;9.80;99.90;;;;;;5032516;28;20543;-75
2023/05/16 06:37:34;;;;;;;0.20;0.20;;;9.90;99.90;;;;;;5032581;28;20426;-75
2023/05/16 06:40:00;;;;;;;0.30;0.30;;;10.10;99.90;;;;;;5030544;28;20017;-75
2023/05/16 06:42:25;;;;;;;0.20;0.20;;;10.10;99.90;;;;;;5032825;28;20029;-75
2023/05/16 06:44:51;;;;;;;0.20;0.20;;;10.20;99.90;;;;;;5022987;28;20013;-75
2023/05/16 06:47:16;;;;;;;0.28;0.28;;;10.20;99.90;;;;;;5013739;28;20037;-75
2023/05/16 06:49:42;;;;;;;0.10;0.10;;;10.30;99.90;;;;;;5019385;28;20024;-75
2023/05/16 06:52:07;;;;;;;0.20;0.20;;;10.40;99.90;;;;;;5032786;28;20116;-75
2023/05/16 06:54:33;;;;;;;0.20;0.20;;;10.50;99.90;;;;;;5032475;28;20029;-76
2023/05/16 06:56:59;;;;;;;0.20;0.20;;;10.60;99.90;;;;;;5015744;28;20487;-76
2023/05/16 06:59:25;;;;;;;0.20;0.20;;;10.80;99.90;;;;;;5012583;28;20030;-76
2023/05/16 07:01:50;;;;;;;0.10;0.10;;;10.80;99.90;;;;;;5023976;28;20029;-75
2023/05/16 07:04:16;;;;;;;0.20;0.20;;;10.80;99.90;;;;;;5032600;28;20029;-75
2023/05/16 07:06:42;;;;;;;0.20;0.20;;;11.10;99.90;;;;;;5022990;28;20483;-76
2023/05/16 07:09:07;;;;;;;0.20;0.20;;;11.10;99.90;;;;;;5012809;28;20056;-75
2023/05/16 07:11:33;;;;;;;0.15;0.15;;;11.20;99.90;;;;;;5014876;28;20018;-75
2023/05/16 07:13:58;;;;;;;0.20;0.20;;;11.30;99.90;;;;;;5032753;28;20034;-76
2023/05/16 07:16:27;;;;;;;0.20;0.20;;;11.40;99.90;;;;;;5032162;28;20025;-75
2023/05/16 07:18:53;;;;;;;0.15;0.15;;;11.30;99.90;;;;;;5032319;28;20022;-75
2023/05/16 07:21:18;;;;;;;0.20;0.20;;;11.20;99.90;;;;;;5032255;28;20125;-76
2023/05/16 07:23:44;;;;;;;0.20;0.20;;;11.10;99.90;;;;;;5032376;28;20080;-76
2023/05/16 07:26:10;;;;;;;0.20;0.20;;;10.90;99.90;;;;;;5032760;28;20052;-77
2023/05/16 07:28:35;;;;;;;0.10;0.10;;;11.00;99.90;;;;;;5032264;28;20555;-76
2023/05/16 07:31:01;;;;;;;0.20;0.20;;;11.10;99.90;;;;;;5032304;28;20025;-76
2023/05/16 07:33:26;;;;;;;0.22;0.22;;;11.10;99.90;;;;;;5032474;28;20048;-76
2023/05/16 07:35:53;;;;;;;0.20;0.20;;;10.90;99.90;;;;;;5032125;28;20028;-75
2023/05/16 07:38:20;;;;;;;0.20;0.20;;;10.80;99.90;;;;;;5032360;28;20033;-75
2023/05/16 07:40:46;;;;;;;0.17;0.17;;;10.70;99.90;;;;;;5032232;28;20101;-75
2023/05/16 07:43:12;;;;;;;0.20;0.20;;;10.60;99.90;;;;;;5032254;28;20499;-75
2023/05/16 07:45:37;;;;;;;0.28;0.28;;;10.60;99.90;;;;;;5032781;28;20025;-75
2023/05/16 07:48:03;;;;;;;0.20;0.20;;;10.70;99.90;;;;;;5035646;28;20041;-75
2023/05/16 07:50:29;;;;;;;0.20;0.20;;;10.90;99.90;;;;;;5035777;28;20033;-75
2023/05/16 07:52:55;;;;;;;0.20;0.20;;;11.20;99.90;;;;;;5035588;28;20121;-76
2023/05/16 07:55:21;;;;;;;0.20;0.20;;;11.60;99.90;;;;;;5035780;28;20487;-76
2023/05/16 07:57:47;;;;;;;0.20;0.20;;;11.70;99.90;;;;;;5035463;28;20487;-76
2023/05/16 08:00:13;;;;;;;0.10;0.10;;;11.50;99.90;;;;;;5035805;28;20018;-76
2023/05/16 08:02:40;;;;;;;0.28;0.28;;;11.30;99.90;;;;;;5035815;28;20032;-76
2023/05/16 08:05:06;;;;;;;0.10;0.10;;;11.00;99.90;;;;;;5033979;28;20022;-76
2023/05/16 08:07:32;;;;;;;0.10;0.10;;;10.70;99.90;;;;;;5035547;28;20025;-75
2023/05/16 08:09:57;;;;;;;0.30;0.30;;;10.40;99.90;;;;;;5016155;28;20030;-76
2023/05/16 08:12:24;;;;;;;0.15;0.15;;;10.00;99.90;;;;;;5015469;28;20026;-75
2023/05/16 08:14:49;;;;;;;0.10;0.10;;;9.80;99.90;;;;;;5015832;28;20117;-75
2023/05/16 08:17:15;;;;;;;0.20;0.20;;;9.70;99.90;;;;;;5015590;28;20101;-75
2023/05/16 08:19:40;;;;;;;0.10;0.10;;;9.80;99.90;;;;;;5025736;23;20056;-75
2023/05/16 08:22:08;;;;;;;0.20;0.20;;;9.90;99.90;;;;;;5035322;28;20495;-76
2023/05/16 08:24:34;;;;;;;0.30;0.30;;;10.10;99.90;;;;;;5035410;28;20471;-76
2023/05/16 08:27:00;;;;;;;0.20;0.20;;;10.20;99.90;;;;;;5034054;28;20613;-77
2023/05/16 08:29:25;;;;;;;0.20;0.20;;;10.40;99.90;;;;;;5035350;28;20109;-76
2023/05/16 08:31:51;;;;;;;0.20;0.20;;;10.60;99.90;;;;;;5035328;28;20033;-76
2023/05/16 08:34:17;;;;;;;0.20;0.20;;;10.60;99.90;;;;;;5035230;28;20029;-76
2023/05/16 08:36:42;;;;;;;0.13;0.13;;;10.90;99.90;;;;;;5035132;28;20542;-76
2023/05/16 08:39:10;;;;;;;0.30;0.30;;;10.90;99.90;;;;;;5035181;28;20025;-76
2023/05/16 08:41:36;;;;;;;0.20;0.20;;;10.80;99.90;;;;;;5035001;28;20018;-76
2023/05/16 08:44:02;;;;;;;0.20;0.20;;;10.60;99.90;;;;;;5035131;28;20026;-76
2023/05/16 08:46:28;;;;;;;0.10;0.10;;;10.70;99.90;;;;;;5033976;28;20405;-76
2023/05/16 08:48:58;;;;;;;0.22;0.22;;;10.80;99.90;;;;;;5035017;28;20021;-77
2023/05/16 08:51:25;;;;;;;0.20;0.20;;;10.80;99.90;;;;;;5034868;28;20051;-76
2023/05/16 08:54:02;;;;;;;0.30;0.30;;;10.80;99.90;;;;;;5035339;28;20041;-76
2023/05/16 08:56:28;;;;;;;0.17;0.17;;;10.80;99.90;;;;;;5033216;28;20025;-76
2023/05/16 08:58:54;;;;;;;0.20;0.20;;;10.80;99.90;;;;;;5034765;28;20107;-77
2023/05/16 09:01:21;;;;;;;0.20;0.20;;;10.90;99.90;;;;;;5034793;28;20066;-77
2023/05/16 09:03:48;;;;;;;0.20;0.20;;;10.80;99.90;;;;;;5034716;28;20026;-76
2023/05/16 09:06:15;;;;;;;0.20;0.20;;;10.60;99.90;;;;;;5034640;28;20053;-76
2023/05/16 09:08:41;;;;;;;0.20;0.20;;;10.50;99.90;;;;;;5034733;28;20526;-76
2023/05/16 09:11:07;;;;;;;0.20;0.20;;;10.40;99.90;;;;;;5034489;28;20075;-77
2023/05/16 09:13:34;;;;;;;0.10;0.10;;;10.40;99.90;;;;;;5033287;28;20022;-76
2023/05/16 09:16:14;;;;;;;0.20;0.20;;;10.40;99.90;;;;;;5034425;28;20025;-76
2023/05/16 09:18:42;;;;;;;0.20;0.20;;;10.50;99.90;;;;;;5034505;28;20025;-77
2023/05/16 09:21:10;;;;;;;0.30;0.30;;;10.60;99.90;;;;;;5034261;28;20052;-77
2023/05/16 09:23:36;;;;;;;0.17;0.17;;;10.70;99.90;;;;;;5034397;28;20064;-77
2023/05/16 09:26:04;;;;;;;0.20;0.20;;;10.90;99.90;;;;;;5034246;28;20099;-77
2023/05/16 09:28:30;;;;;;;0.20;0.20;;;10.80;99.90;;;;;;5032903;28;20029;-77
2023/05/16 09:30:58;;;;;;;0.20;0.20;;;10.70;99.90;;;;;;5034306;28;20021;-76
2023/05/16 09:33:26;;;;;;;0.20;0.20;;;10.60;99.90;;;;;;5034313;28;20048;-77
2023/05/16 09:35:59;;;;;;;0.20;0.20;;;10.60;99.90;;;;;;5034731;28;20104;-76
2023/05/16 09:38:26;;;;;;;0.10;0.10;;;10.60;99.90;;;;;;5034271;28;20057;-77
2023/05/16 09:40:53;;;;;;;0.20;0.20;;;10.80;99.90;;;;;;5034058;28;20471;-77
2023/05/16 09:43:25;;;;;;;0.20;0.20;;;10.90;99.90;;;;;;5032676;28;20029;-76
2023/05/16 09:45:51;;;;;;;0.20;0.20;;;11.10;99.90;;;;;;5034031;28;20025;-77
2023/05/16 09:48:19;;;;;;;0.20;0.20;;;11.30;99.90;;;;;;5033861;28;20550;-76
2023/05/16 09:50:51;;;;;;;0.30;0.30;;;11.60;99.90;;;;;;5034065;28;20025;-77
2023/05/16 09:53:25;;;;;;;0.22;0.22;;;11.90;99.90;;;;;;5033140;28;20025;-77
2023/05/16 09:56:11;;;;;;;0.20;0.20;;;11.80;99.90;;;;;;5032683;28;20415;-77
2023/05/16 09:58:38;;;;;;;0.20;0.20;;;11.90;99.90;;;;;;5033863;28;20514;-77
2023/05/16 10:01:05;;;;;;;0.20;0.20;;;12.20;99.90;;;;;;5033815;28;20033;-77
2023/05/16 10:03:33;;;;;;;0.20;0.20;;;12.20;99.90;;;;;;5033896;28;20513;-77
2023/05/16 10:05:59;;;;;;;0.20;0.20;;;11.70;99.90;;;;;;5033599;28;20025;-76
2023/05/16 10:08:25;;;;;;;0.10;0.10;;;11.20;99.90;;;;;;5033242;28;20029;-77
2023/05/16 10:10:53;;;;;;;0.20;0.20;;;10.90;99.90;;;;;;5033586;28;20406;-76
2023/05/16 10:13:25;;;;;;;0.10;0.10;;;10.60;99.90;;;;;;5033823;28;20495;-76
2023/05/16 10:15:55;;;;;;;0.20;0.20;;;10.40;99.90;;;;;;5033450;28;20041;-76
2023/05/16 10:18:22;;;;;;;0.20;0.20;;;10.30;99.90;;;;;;5033304;28;20034;-77
2023/05/16 10:20:51;;;;;;;0.17;0.17;;;10.40;99.90;;;;;;5032860;28;20026;-76
2023/05/16 10:23:18;;;;;;;0.20;0.20;;;10.80;99.90;;;;;;5032208;28;20018;-77
2023/05/16 10:25:46;;;;;;;0.20;0.20;;;10.90;99.90;;;;;;5033740;28;20063;-76
2023/05/16 10:28:15;;;;;;;0.20;0.20;;;10.90;99.90;;;;;;5032434;28;20136;-76
2023/05/16 10:30:43;;;;;;;0.10;0.10;;;11.00;99.90;;;;;;5033157;28;20025;-76
2023/05/16 10:33:17;;;;;;;0.13;0.13;;;11.00;99.90;;;;;;5033656;28;20049;-76
2023/05/16 10:35:43;;;;;;;0.20;0.20;;;10.80;99.90;;;;;;5033423;28;20029;-76
2023/05/16 10:38:11;;;;;;;0.10;0.10;;;10.60;99.90;;;;;;5033184;28;20475;-76
2023/05/16 10:40:40;;;;;;;0.30;0.30;;;10.50;99.90;;;;;;5033202;28;20026;-76
2023/05/16 10:43:07;;;;;;;0.20;0.20;;;10.40;99.90;;;;;;5032137;28;20451;-76
2023/05/16 10:45:34;;;;;;;0.17;0.17;;;10.50;99.90;;;;;;5033376;28;20479;-75
2023/05/16 10:48:05;;;;;;;0.10;0.10;;;10.70;99.90;;;;;;5033388;28;20458;-77
2023/05/16 10:50:32;;;;;;;0.20;0.20;;;11.10;99.90;;;;;;5033306;28;20041;-77
2023/05/16 10:53:10;;;;;;;0.30;0.30;;;11.40;99.90;;;;;;5032181;28;20034;-77
2023/05/16 10:55:38;;;;;;;0.20;0.20;;;11.60;99.90;;;;;;5033473;28;20029;-77
2023/05/16 10:58:03;;;;;;;0.10;0.10;;;11.80;99.90;;;;;;5033493;28;20036;-76
2023/05/16 11:00:29;;;;;;;0.20;0.20;;;11.60;99.90;;;;;;5033432;28;20026;-76
2023/05/16 11:03:04;;;;;;;0.10;0.10;;;11.40;99.90;;;;;;5033106;28;20074;-77
2023/05/16 11:05:30;;;;;;;0.20;0.20;;;11.20;99.90;;;;;;5036184;28;20017;-77
2023/05/16 11:08:04;;;;;;;0.20;0.20;;;11.00;99.90;;;;;;5039393;28;20517;-78
2023/05/16 11:10:30;;;;;;;0.30;0.30;;;11.00;99.90;;;;;;5037471;28;20029;-78
2023/05/16 11:13:02;;;;;;;0.20;0.20;;;11.10;99.90;;;;;;5031338;28;20112;-75
2023/05/16 11:15:31;;;;;;;0.20;0.20;;;11.20;99.90;;;;;;5021532;28;20380;-77
2023/05/16 11:18:16;;;;;;;0.10;0.10;;;11.00;99.90;;;;;;5027001;28;20464;-76
2023/05/16 11:20:41;;;;;;;0.20;0.20;;;10.80;99.90;;;;;;5037196;28;20033;-77
2023/05/16 11:23:20;;;;;;;0.20;0.20;;;10.70;99.90;;;;;;5038027;28;20129;-77
2023/05/16 11:25:49;;;;;;;0.20;0.20;;;10.50;99.90;;;;;;5040247;28;20022;-78
2023/05/16 11:28:17;;;;;;;0.20;0.20;;;10.40;99.90;;;;;;5031917;28;20026;-79
2023/05/16 11:31:04;;;;;;;0.10;0.10;;;10.40;99.90;;;;;;5042238;28;20065;-79
2023/05/16 11:33:34;;;;;;;0.10;0.10;;;10.60;99.90;;;;;;5049525;28;20029;-78
2023/05/16 11:36:04;;;;;;;0.20;0.20;;;10.60;99.90;;;;;;5051210;28;20022;-78
2023/05/16 11:38:31;;;;;;;0.20;0.20;;;10.70;99.90;;;;;;5045503;28;20032;-78
2023/05/16 11:41:10;;;;;;;0.20;0.20;;;10.70;99.90;;;;;;5046978;28;20026;-78
2023/05/16 11:43:45;;;;;;;0.10;0.10;;;10.60;99.90;;;;;;5034178;28;20095;-77
2023/05/16 11:46:15;;;;;;;0.20;0.20;;;10.20;99.90;;;;;;5035042;28;20025;-77
2023/05/16 11:48:41;;;;;;;0.15;0.15;;;9.70;99.90;;;;;;5036940;28;20474;-77
2023/05/16 11:51:07;;;;;;;0.20;0.20;;;9.40;99.90;;;;;;5038146;28;20017;-78
2023/05/16 11:53:33;;;;;;;0.10;0.10;;;9.50;99.90;;;;;;5021420;28;20112;-78
2023/05/16 11:56:00;;;;;;;0.22;0.22;;;9.60;99.90;;;;;;5027933;28;20025;-77
2023/05/16 11:58:26;;;;;;;0.22;0.22;;;9.70;99.90;;;;;;5025604;28;20413;-77
2023/05/16 12:00:52;;;;;;;0.20;0.20;;;10.00;99.90;;;;;;5025980;28;20104;-78
2023/05/16 12:03:19;;;;;;;0.20;0.20;;;10.00;99.90;;;;;;5037429;28;20078;-77
2023/05/16 12:05:56;;;;;;;0.20;0.20;;;10.00;99.90;;;;;;5037375;28;20026;-79
2023/05/16 12:08:23;;;;;;;0.20;0.20;;;10.10;99.90;;;;;;5034549;28;20049;-76
2023/05/16 12:10:50;;;;;;;0.20;0.20;;;10.40;99.90;;;;;;5036122;28;20021;-77
2023/05/16 12:13:21;;;;;;;0.20;0.20;;;10.50;99.90;;;;;;5035720;28;20032;-77
2023/05/16 12:15:47;;;;;;;0.10;0.10;;;10.20;99.90;;;;;;5036060;28;20026;-77
2023/05/16 12:18:13;;;;;;;0.20;0.20;;;9.90;99.90;;;;;;5035394;28;20108;-76
2023/05/16 12:20:39;;;;;;;0.20;0.20;;;9.90;99.90;;;;;;5033982;28;20491;-76
2023/05/16 12:23:10;;;;;;;0.13;0.13;;;9.90;99.90;;;;;;5035072;28;20040;-76
2023/05/16 12:25:40;;;;;;;0.15;0.15;;;9.80;99.90;;;;;;5034243;28;20032;-77
2023/05/16 12:28:07;;;;;;;0.20;0.20;;;9.90;99.90;;;;;;5035255;28;20108;-77
2023/05/16 12:30:32;;;;;;;0.13;0.13;;;10.10;99.90;;;;;;5033976;28;20458;-76
2023/05/16 12:33:08;;;;;;;0.20;0.20;;;10.30;99.90;;;;;;5034288;28;20101;-76
2023/05/16 12:35:34;;;;;;;0.10;0.10;;;10.40;99.90;;;;;;5035469;28;20075;-77
2023/05/16 12:38:07;;;;;;;0.20;0.20;;;10.50;99.90;;;;;;5034343;28;20390;-77
2023/05/16 12:40:33;;;;;;;0.10;0.10;;;10.40;99.90;;;;;;5032206;28;20029;-77
2023/05/16 12:42:58;;;;;;;0.20;0.20;;;10.30;99.90;;;;;;5034311;28;20087;-77
2023/05/16 12:45:26;;;;;;;0.10;0.10;;;10.20;99.90;;;;;;5018032;28;20087;-77
2023/05/16 12:47:52;;;;;;;0.15;0.15;;;9.90;99.90;;;;;;5014760;28;20125;-76
2023/05/16 12:50:17;;;;;;;0.20;0.20;;;9.90;99.90;;;;;;5015133;28;20519;-76
2023/05/16 12:52:48;;;;;;;0.17;0.17;;;10.00;99.90;;;;;;5015002;28;20499;-76